sensor_id;sensor_type;location;lat;lon;timestamp;pressure;altitude;pressure_sealevel;temperature;humidity
15674;BME280;7937;48.090;16.212;2023-01-28T00:02:39;97981.34;;;-0.84;69.02
15674;BME280;7937;48.090;16.212;2023-01-28T00:05:42;97979.22;;;-0.96;68.83
15674;BME280;7937;48.090;16.212;2023-01-28T00:08:44;97985.22;;;-1.04;69.07
15674;BME280;7937;48.090;16.212;2023-01-28T00:11:46;97982.44;;;-1.11;69.54
15674;BME280;7937;48.090;16.212;2023-01-28T00:14:51;97989.00;;;-1.07;69.19
15674;BME280;7937;48.090;16.212;2023-01-28T00:17:56;97980.34;;;-1.07;69.30
15674;BME280;7937;48.090;16.212;2023-01-28T00:21:00;97982.28;;;-1.09;69.51
15674;BME280;7937;48.090;16.212;2023-01-28T00:24:02;97990.78;;;-1.07;69.24
15674;BME280;7937;48.090;16.212;2023-01-28T00:27:05;97985.22;;;-1.12;69.34
15674;BME280;7937;48.090;16.212;2023-01-28T00:30:10;97989.31;;;-1.10;69.59
15674;BME280;7937;48.090;16.212;2023-01-28T00:33:12;97978.72;;;-1.08;69.50
15674;BME280;7937;48.090;16.212;2023-01-28T00:36:15;97957.09;;;-1.26;69.61
15674;BME280;7937;48.090;16.212;2023-01-28T00:39:18;97990.78;;;-1.07;69.60
15674;BME280;7937;48.090;16.212;2023-01-28T00:42:20;97978.81;;;-1.26;69.35
15674;BME280;7937;48.090;16.212;2023-01-28T00:45:22;97979.00;;;-1.19;69.45
15674;BME280;7937;48.090;16.212;2023-01-28T00:48:24;97976.72;;;-1.22;69.74
15674;BME280;7937;48.090;16.212;2023-01-28T00:51:26;97980.31;;;-1.15;69.46
15674;BME280;7937;48.090;16.212;2023-01-28T00:54:28;97975.25;;;-1.17;69.27
15674;BME280;7937;48.090;16.212;2023-01-28T00:57:33;97977.69;;;-1.15;69.44
15674;BME280;7937;48.090;16.212;2023-01-28T01:00:36;97977.88;;;-1.17;69.56
15674;BME280;7937;48.090;16.212;2023-01-28T01:03:38;97968.25;;;-1.08;69.06
15674;BME280;7937;48.090;16.212;2023-01-28T01:06:41;97975.59;;;-1.12;69.25
15674;BME280;7937;48.090;16.212;2023-01-28T01:09:44;97978.84;;;-1.18;69.36
15674;BME280;7937;48.090;16.212;2023-01-28T01:12:48;97966.53;;;-1.34;69.48
15674;BME280;7937;48.090;16.212;2023-01-28T01:16:03;97980.63;;;-1.18;69.49
15674;BME280;7937;48.090;16.212;2023-01-28T01:19:06;97979.34;;;-1.06;69.22
15674;BME280;7937;48.090;16.212;2023-01-28T01:22:10;97985.41;;;-0.97;68.98
15674;BME280;7937;48.090;16.212;2023-01-28T01:25:13;97985.06;;;-0.94;68.68
15674;BME280;7937;48.090;16.212;2023-01-28T01:28:20;97992.78;;;-0.93;68.88
15674;BME280;7937;48.090;16.212;2023-01-28T01:31:22;97964.16;;;-1.11;68.69
15674;BME280;7937;48.090;16.212;2023-01-28T01:34:25;97990.66;;;-0.97;68.73
15674;BME280;7937;48.090;16.212;2023-01-28T01:37:28;97993.59;;;-0.92;68.50
15674;BME280;7937;48.090;16.212;2023-01-28T01:40:30;97994.59;;;-0.93;68.66
15674;BME280;7937;48.090;16.212;2023-01-28T01:44:04;98001.59;;;-0.94;68.98
15674;BME280;7937;48.090;16.212;2023-01-28T01:47:07;97993.25;;;-0.89;69.44
15674;BME280;7937;48.090;16.212;2023-01-28T01:50:26;97998.63;;;-0.99;69.12
15674;BME280;7937;48.090;16.212;2023-01-28T01:53:33;97996.22;;;-0.92;68.59
15674;BME280;7937;48.090;16.212;2023-01-28T01:56:39;98010.09;;;-0.92;68.29
15674;BME280;7937;48.090;16.212;2023-01-28T01:59:46;98010.09;;;-0.92;68.70
15674;BME280;7937;48.090;16.212;2023-01-28T02:02:49;97972.50;;;-1.07;68.61
15674;BME280;7937;48.090;16.212;2023-01-28T02:05:52;98002.09;;;-0.90;68.45
15674;BME280;7937;48.090;16.212;2023-01-28T02:08:55;97965.78;;;-1.18;68.77
15674;BME280;7937;48.090;16.212;2023-01-28T02:12:05;97994.91;;;-0.96;68.75
15674;BME280;7937;48.090;16.212;2023-01-28T02:15:19;97976.75;;;-1.06;68.89
15674;BME280;7937;48.090;16.212;2023-01-28T02:18:21;97988.03;;;-0.97;68.92
15674;BME280;7937;48.090;16.212;2023-01-28T02:21:44;97987.56;;;-0.93;68.78
15674;BME280;7937;48.090;16.212;2023-01-28T02:28:20;98000.97;;;-0.88;68.85
15674;BME280;7937;48.090;16.212;2023-01-28T02:31:48;97996.72;;;-0.81;68.62
15674;BME280;7937;48.090;16.212;2023-01-28T02:38:44;98004.22;;;-0.86;68.18
15674;BME280;7937;48.090;16.212;2023-01-28T02:41:46;97994.75;;;-0.87;68.36
15674;BME280;7937;48.090;16.212;2023-01-28T02:44:54;97997.38;;;-0.87;68.39
15674;BME280;7937;48.090;16.212;2023-01-28T02:47:56;97969.53;;;-1.04;68.65
15674;BME280;7937;48.090;16.212;2023-01-28T02:51:08;97989.03;;;-0.82;69.09
15674;BME280;7937;48.090;16.212;2023-01-28T03:01:06;98006.16;;;-1.12;69.44
15674;BME280;7937;48.090;16.212;2023-01-28T03:04:17;97996.16;;;-1.17;69.55
15674;BME280;7937;48.090;16.212;2023-01-28T03:07:26;97992.72;;;-1.17;69.60
15674;BME280;7937;48.090;16.212;2023-01-28T03:10:32;97991.91;;;-1.10;69.30
15674;BME280;7937;48.090;16.212;2023-01-28T03:13:37;97990.78;;;-1.07;69.62
15674;BME280;7937;48.090;16.212;2023-01-28T03:16:59;97996.50;;;-1.12;69.78
15674;BME280;7937;48.090;16.212;2023-01-28T03:20:21;97992.56;;;-1.16;69.89
15674;BME280;7937;48.090;16.212;2023-01-28T03:23:53;98006.41;;;-1.32;70.24
15674;BME280;7937;48.090;16.212;2023-01-28T03:27:20;97995.97;;;-1.32;70.10
15674;BME280;7937;48.090;16.212;2023-01-28T03:30:57;97995.28;;;-1.42;70.43
15674;BME280;7937;48.090;16.212;2023-01-28T03:34:26;97992.63;;;-1.50;70.95
15674;BME280;7937;48.090;16.212;2023-01-28T03:37:47;98003.94;;;-1.41;71.03
15674;BME280;7937;48.090;16.212;2023-01-28T03:41:02;98003.09;;;-1.42;70.93
15674;BME280;7937;48.090;16.212;2023-01-28T03:44:04;98004.28;;;-1.36;70.94
15674;BME280;7937;48.090;16.212;2023-01-28T03:47:27;98002.13;;;-1.41;71.36
15674;BME280;7937;48.090;16.212;2023-01-28T03:50:30;97999.13;;;-1.54;71.78
15674;BME280;7937;48.090;16.212;2023-01-28T03:53:36;98002.59;;;-1.45;71.72
15674;BME280;7937;48.090;16.212;2023-01-28T03:56:38;98006.38;;;-1.40;71.56
15674;BME280;7937;48.090;16.212;2023-01-28T03:59:41;98009.28;;;-1.51;72.04
15674;BME280;7937;48.090;16.212;2023-01-28T04:02:46;98005.84;;;-1.51;71.63
15674;BME280;7937;48.090;16.212;2023-01-28T04:05:59;98006.03;;;-1.45;72.06
15674;BME280;7937;48.090;16.212;2023-01-28T04:09:17;97974.81;;;-1.54;71.72
15674;BME280;7937;48.090;16.212;2023-01-28T04:12:28;97997.84;;;-1.50;71.90
15674;BME280;7937;48.090;16.212;2023-01-28T04:15:31;98002.56;;;-1.53;71.97
15674;BME280;7937;48.090;16.212;2023-01-28T04:18:34;98007.13;;;-1.56;72.56
15674;BME280;7937;48.090;16.212;2023-01-28T04:21:38;97980.75;;;-1.78;72.28
15674;BME280;7937;48.090;16.212;2023-01-28T04:24:41;98010.25;;;-1.52;72.36
15674;BME280;7937;48.090;16.212;2023-01-28T04:27:46;98008.75;;;-1.54;72.13
15674;BME280;7937;48.090;16.212;2023-01-28T04:30:53;98014.50;;;-1.51;72.16
15674;BME280;7937;48.090;16.212;2023-01-28T04:34:26;98013.19;;;-1.55;72.34
15674;BME280;7937;48.090;16.212;2023-01-28T04:37:42;98008.59;;;-1.53;72.13
15674;BME280;7937;48.090;16.212;2023-01-28T04:41:07;98013.19;;;-1.55;72.11
15674;BME280;7937;48.090;16.212;2023-01-28T04:44:09;98020.38;;;-1.49;72.56
15674;BME280;7937;48.090;16.212;2023-01-28T04:47:29;98016.66;;;-1.46;72.98
15674;BME280;7937;48.090;16.212;2023-01-28T04:51:00;98023.34;;;-1.44;72.28
15674;BME280;7937;48.090;16.212;2023-01-28T04:54:14;98025.13;;;-1.44;72.71
15674;BME280;7937;48.090;16.212;2023-01-28T04:57:17;98031.03;;;-1.42;72.94
15674;BME280;7937;48.090;16.212;2023-01-28T05:00:20;98037.38;;;-1.45;71.70
15674;BME280;7937;48.090;16.212;2023-01-28T05:03:25;98031.84;;;-1.42;71.82
15674;BME280;7937;48.090;16.212;2023-01-28T05:06:28;98032.09;;;-1.53;72.27
15674;BME280;7937;48.090;16.212;2023-01-28T05:09:35;98032.47;;;-1.48;72.41
15674;BME280;7937;48.090;16.212;2023-01-28T05:12:43;98032.00;;;-1.43;71.99
15674;BME280;7937;48.090;16.212;2023-01-28T05:15:50;98033.13;;;-1.46;72.28
15674;BME280;7937;48.090;16.212;2023-01-28T05:18:53;98032.31;;;-1.46;72.12
15674;BME280;7937;48.090;16.212;2023-01-28T05:21:56;98032.00;;;-1.43;72.58
15674;BME280;7937;48.090;16.212;2023-01-28T05:25:19;98042.78;;;-1.38;72.88
15674;BME280;7937;48.090;16.212;2023-01-28T05:28:21;98033.44;;;-1.49;72.92
15674;BME280;7937;48.090;16.212;2023-01-28T05:31:23;98038.00;;;-1.51;72.81
15674;BME280;7937;48.090;16.212;2023-01-28T05:34:28;98041.25;;;-1.57;73.52
15674;BME280;7937;48.090;16.212;2023-01-28T05:37:38;98045.72;;;-1.41;73.24
15674;BME280;7937;48.090;16.212;2023-01-28T05:40:40;98033.66;;;-1.34;73.17
15674;BME280;7937;48.090;16.212;2023-01-28T05:43:43;98049.69;;;-1.29;73.32
15674;BME280;7937;48.090;16.212;2023-01-28T05:46:54;98049.22;;;-1.33;72.62
15674;BME280;7937;48.090;16.212;2023-01-28T05:50:15;98014.50;;;-1.51;72.65
15674;BME280;7937;48.090;16.212;2023-01-28T05:53:37;98043.78;;;-1.39;73.30
15674;BME280;7937;48.090;16.212;2023-01-28T05:56:41;98044.75;;;-1.40;72.81
15674;BME280;7937;48.090;16.212;2023-01-28T05:59:43;98057.50;;;-1.37;73.21
15674;BME280;7937;48.090;16.212;2023-01-28T06:02:46;98051.78;;;-1.41;73.48
15674;BME280;7937;48.090;16.212;2023-01-28T06:05:49;98052.94;;;-1.35;73.56
15674;BME280;7937;48.090;16.212;2023-01-28T06:08:52;98052.72;;;-1.50;74.05
15674;BME280;7937;48.090;16.212;2023-01-28T06:11:59;98059.25;;;-1.46;74.51
15674;BME280;7937;48.090;16.212;2023-01-28T06:15:05;98066.41;;;-1.48;73.97
15674;BME280;7937;48.090;16.212;2023-01-28T06:18:25;98035.81;;;-1.64;74.02
15674;BME280;7937;48.090;16.212;2023-01-28T06:21:28;98062.38;;;-1.42;74.17
15674;BME280;7937;48.090;16.212;2023-01-28T06:24:31;98057.78;;;-1.48;74.05
15674;BME280;7937;48.090;16.212;2023-01-28T06:27:34;98065.00;;;-1.42;74.20
15674;BME280;7937;48.090;16.212;2023-01-28T06:30:36;98071.41;;;-1.37;74.05
15674;BME280;7937;48.090;16.212;2023-01-28T06:33:38;98074.34;;;-1.32;73.61
15674;BME280;7937;48.090;16.212;2023-01-28T06:36:41;98076.50;;;-1.27;73.47
15674;BME280;7937;48.090;16.212;2023-01-28T06:39:43;98077.59;;;-1.38;73.06
15674;BME280;7937;48.090;16.212;2023-01-28T06:42:45;98080.22;;;-1.30;72.95
15674;BME280;7937;48.090;16.212;2023-01-28T06:45:47;98090.06;;;-1.23;72.51
15674;BME280;7937;48.090;16.212;2023-01-28T06:48:50;98086.13;;;-1.27;72.83
15674;BME280;7937;48.090;16.212;2023-01-28T06:51:53;98096.44;;;-1.26;73.26
15674;BME280;7937;48.090;16.212;2023-01-28T06:54:55;98097.06;;;-1.24;73.06
15674;BME280;7937;48.090;16.212;2023-01-28T06:57:57;98112.06;;;-1.34;72.89
15674;BME280;7937;48.090;16.212;2023-01-28T07:01:03;98118.09;;;-1.34;73.05
15674;BME280;7937;48.090;16.212;2023-01-28T07:04:06;98099.22;;;-1.27;73.11
15674;BME280;7937;48.090;16.212;2023-01-28T07:07:09;98113.94;;;-1.18;73.26
15674;BME280;7937;48.090;16.212;2023-01-28T07:10:11;98074.16;;;-1.38;73.25
15674;BME280;7937;48.090;16.212;2023-01-28T07:13:14;98115.94;;;-1.04;72.94
15674;BME280;7937;48.090;16.212;2023-01-28T07:16:16;98113.66;;;-1.07;72.61
15674;BME280;7937;48.090;16.212;2023-01-28T07:19:21;98111.06;;;-1.07;73.03
15674;BME280;7937;48.090;16.212;2023-01-28T07:22:23;98108.78;;;-1.02;72.72
15674;BME280;7937;48.090;16.212;2023-01-28T07:25:25;98112.22;;;-1.01;73.06
15674;BME280;7937;48.090;16.212;2023-01-28T07:28:28;98111.69;;;-1.13;73.46
15674;BME280;7937;48.090;16.212;2023-01-28T07:31:30;98101.72;;;-1.10;73.49
15674;BME280;7937;48.090;16.212;2023-01-28T07:34:33;98103.84;;;-1.13;73.69
15674;BME280;7937;48.090;16.212;2023-01-28T07:37:35;98113.31;;;-1.12;74.02
15674;BME280;7937;48.090;16.212;2023-01-28T07:40:38;98107.88;;;-1.19;74.15
15674;BME280;7937;48.090;16.212;2023-01-28T07:43:40;98110.66;;;-1.20;73.96
15674;BME280;7937;48.090;16.212;2023-01-28T07:46:43;98120.66;;;-1.16;74.31
15674;BME280;7937;48.090;16.212;2023-01-28T07:49:45;98128.78;;;-1.19;74.31
15674;BME280;7937;48.090;16.212;2023-01-28T07:52:48;98128.69;;;-1.09;74.05
15674;BME280;7937;48.090;16.212;2023-01-28T07:55:51;98121.50;;;-1.07;74.21
15674;BME280;7937;48.090;16.212;2023-01-28T07:58:53;98140.59;;;-1.15;74.54
15674;BME280;7937;48.090;16.212;2023-01-28T08:01:55;98127.72;;;-1.08;74.14
15674;BME280;7937;48.090;16.212;2023-01-28T08:04:58;98133.47;;;-0.96;73.87
15674;BME280;7937;48.090;16.212;2023-01-28T08:08:06;98142.50;;;-0.91;73.78
15674;BME280;7937;48.090;16.212;2023-01-28T08:11:10;98139.78;;;-0.73;73.51
15674;BME280;7937;48.090;16.212;2023-01-28T08:14:12;98139.91;;;-0.74;73.00
15674;BME280;7937;48.090;16.212;2023-01-28T08:17:18;98151.91;;;-0.64;73.30
15674;BME280;7937;48.090;16.212;2023-01-28T08:20:22;98152.56;;;-0.62;73.01
15674;BME280;7937;48.090;16.212;2023-01-28T08:23:26;98147.38;;;-0.45;72.44
15674;BME280;7937;48.090;16.212;2023-01-28T08:26:30;98150.31;;;-0.40;72.14
15674;BME280;7937;48.090;16.212;2023-01-28T08:29:32;98157.56;;;-0.34;71.86
15674;BME280;7937;48.090;16.212;2023-01-28T08:32:34;98158.84;;;-0.38;71.63
15674;BME280;7937;48.090;16.212;2023-01-28T08:35:38;98155.06;;;-0.36;71.70
15674;BME280;7937;48.090;16.212;2023-01-28T08:38:40;98167.38;;;-0.20;71.76
15674;BME280;7937;48.090;16.212;2023-01-28T08:41:42;98165.44;;;-0.10;71.49
15674;BME280;7937;48.090;16.212;2023-01-28T08:44:45;98149.22;;;-0.13;71.43
15674;BME280;7937;48.090;16.212;2023-01-28T08:47:56;98180.00;;;0.01;70.89
15674;BME280;7937;48.090;16.212;2023-01-28T08:50:58;98177.72;;;-0.02;71.01
15674;BME280;7937;48.090;16.212;2023-01-28T08:54:01;98178.38;;;0.00;70.86
15674;BME280;7937;48.090;16.212;2023-01-28T08:57:04;98171.66;;;-0.03;70.42
15674;BME280;7937;48.090;16.212;2023-01-28T09:00:08;98178.69;;;-0.03;70.09
15674;BME280;7937;48.090;16.212;2023-01-28T09:03:11;98179.50;;;-0.03;69.78
15674;BME280;7937;48.090;16.212;2023-01-28T09:06:14;98177.84;;;-0.12;70.02
15674;BME280;7937;48.090;16.212;2023-01-28T09:09:19;98181.97;;;-0.01;70.12
15674;BME280;7937;48.090;16.212;2023-01-28T09:12:22;98177.22;;;0.03;70.09
15674;BME280;7937;48.090;16.212;2023-01-28T09:15:25;98179.66;;;0.04;70.03
15674;BME280;7937;48.090;16.212;2023-01-28T09:18:27;98186.72;;;-0.05;69.78
15674;BME280;7937;48.090;16.212;2023-01-28T09:21:31;98183.28;;;0.03;69.95
15674;BME280;7937;48.090;16.212;2023-01-28T09:24:32;98181.31;;;0.13;70.06
15674;BME280;7937;48.090;16.212;2023-01-28T09:27:34;98191.13;;;0.19;70.25
15674;BME280;7937;48.090;16.212;2023-01-28T09:30:37;98193.78;;;0.28;69.81
15674;BME280;7937;48.090;16.212;2023-01-28T09:33:40;98188.03;;;0.24;69.53
15674;BME280;7937;48.090;16.212;2023-01-28T09:36:42;98190.19;;;0.20;69.78
15674;BME280;7937;48.090;16.212;2023-01-28T09:39:45;98202.63;;;0.10;69.97
15674;BME280;7937;48.090;16.212;2023-01-28T09:43:18;98200.81;;;0.19;70.26
15674;BME280;7937;48.090;16.212;2023-01-28T09:46:32;98204.09;;;0.21;69.97
15674;BME280;7937;48.090;16.212;2023-01-28T09:49:46;98203.91;;;0.22;70.14
15674;BME280;7937;48.090;16.212;2023-01-28T09:53:01;98205.41;;;0.25;69.96
15674;BME280;7937;48.090;16.212;2023-01-28T09:56:08;98201.94;;;0.24;70.22
15674;BME280;7937;48.090;16.212;2023-01-28T09:59:17;98202.28;;;0.21;70.05
15674;BME280;7937;48.090;16.212;2023-01-28T10:03:04;98201.63;;;0.28;70.05
15674;BME280;7937;48.090;16.212;2023-01-28T10:06:25;98198.66;;;0.39;70.40
15674;BME280;7937;48.090;16.212;2023-01-28T10:16:18;98199.16;;;0.59;70.12
15674;BME280;7937;48.090;16.212;2023-01-28T10:19:38;98191.63;;;0.56;70.14
15674;BME280;7937;48.090;16.212;2023-01-28T10:23:00;98184.59;;;0.48;69.94
15674;BME280;7937;48.090;16.212;2023-01-28T10:26:32;98195.88;;;0.65;70.05
15674;BME280;7937;48.090;16.212;2023-01-28T10:29:37;98189.47;;;0.67;69.65
15674;BME280;7937;48.090;16.212;2023-01-28T10:33:09;98189.44;;;0.84;69.81
15674;BME280;7937;48.090;16.212;2023-01-28T10:36:08;98187.16;;;0.89;69.65
15674;BME280;7937;48.090;16.212;2023-01-28T10:39:15;98190.75;;;0.96;69.67
15674;BME280;7937;48.090;16.212;2023-01-28T10:42:27;98191.22;;;0.99;70.00
15674;BME280;7937;48.090;16.212;2023-01-28T10:45:36;98152.56;;;0.85;71.24
15674;BME280;7937;48.090;16.212;2023-01-28T10:52:12;98178.22;;;1.14;71.82
15674;BME280;7937;48.090;16.212;2023-01-28T10:55:15;98189.97;;;1.35;71.38
15674;BME280;7937;48.090;16.212;2023-01-28T10:58:28;98187.16;;;1.36;70.51
15674;BME280;7937;48.090;16.212;2023-01-28T11:01:45;98187.41;;;1.18;70.26
15674;BME280;7937;48.090;16.212;2023-01-28T11:05:00;98186.44;;;1.11;69.86
15674;BME280;7937;48.090;16.212;2023-01-28T11:08:13;98190.06;;;1.02;70.08
15674;BME280;7937;48.090;16.212;2023-01-28T11:11:26;98191.19;;;1.08;69.39
15674;BME280;7937;48.090;16.212;2023-01-28T11:14:29;98175.94;;;1.03;69.32
15674;BME280;7937;48.090;16.212;2023-01-28T11:17:33;98175.31;;;0.93;69.70
15674;BME280;7937;48.090;16.212;2023-01-28T11:20:40;98187.28;;;1.03;70.06
15674;BME280;7937;48.090;16.212;2023-01-28T11:23:53;98182.13;;;1.58;68.72
15674;BME280;7937;48.090;16.212;2023-01-28T11:27:11;98161.50;;;1.07;69.48
15674;BME280;7937;48.090;16.212;2023-01-28T11:30:28;98181.50;;;1.16;69.44
15674;BME280;7937;48.090;16.212;2023-01-28T11:33:40;98177.66;;;1.27;69.43
15674;BME280;7937;48.090;16.212;2023-01-28T11:36:53;98184.88;;;1.33;68.82
15674;BME280;7937;48.090;16.212;2023-01-28T11:40:17;98188.16;;;1.27;68.69
15674;BME280;7937;48.090;16.212;2023-01-28T11:43:27;98186.03;;;1.31;68.93
15674;BME280;7937;48.090;16.212;2023-01-28T11:53:35;98189.66;;;1.21;69.17
15674;BME280;7937;48.090;16.212;2023-01-28T12:20:11;98186.16;;;0.90;70.43
15674;BME280;7937;48.090;16.212;2023-01-28T12:23:17;98189.56;;;0.98;70.81
15674;BME280;7937;48.090;16.212;2023-01-28T12:27:40;98188.63;;;0.91;70.29
15674;BME280;7937;48.090;16.212;2023-01-28T12:30:59;98187.47;;;0.94;71.20
15674;BME280;7937;48.090;16.212;2023-01-28T12:34:06;98191.06;;;0.93;70.35
15674;BME280;7937;48.090;16.212;2023-01-28T12:40:57;98187.59;;;1.09;69.97
15674;BME280;7937;48.090;16.212;2023-01-28T12:44:10;98199.75;;;1.01;69.56
15674;BME280;7937;48.090;16.212;2023-01-28T12:47:36;98201.41;;;0.86;68.81
15674;BME280;7937;48.090;16.212;2023-01-28T12:50:46;98207.16;;;0.82;69.32
15674;BME280;7937;48.090;16.212;2023-01-28T12:53:56;98200.41;;;0.87;69.79
15674;BME280;7937;48.090;16.212;2023-01-28T12:57:02;98205.66;;;0.87;69.45
15674;BME280;7937;48.090;16.212;2023-01-28T13:00:36;98206.16;;;0.83;69.22
15674;BME280;7937;48.090;16.212;2023-01-28T13:03:56;98183.06;;;0.78;69.04
15674;BME280;7937;48.090;16.212;2023-01-28T13:07:12;98202.22;;;0.95;69.09
15674;BME280;7937;48.090;16.212;2023-01-28T13:10:23;98210.41;;;0.84;68.64
15674;BME280;7937;48.090;16.212;2023-01-28T13:13:38;98203.53;;;0.91;69.12
15674;BME280;7937;48.090;16.212;2023-01-28T13:16:46;98211.72;;;0.88;68.96
15674;BME280;7937;48.090;16.212;2023-01-28T13:19:48;98216.84;;;0.81;69.08
15674;BME280;7937;48.090;16.212;2023-01-28T13:22:59;98219.47;;;0.81;69.19
15674;BME280;7937;48.090;16.212;2023-01-28T13:26:42;98223.72;;;0.90;69.52
15674;BME280;7937;48.090;16.212;2023-01-28T13:29:47;98225.66;;;0.96;69.37
15674;BME280;7937;48.090;16.212;2023-01-28T13:32:56;98222.53;;;0.93;68.77
15674;BME280;7937;48.090;16.212;2023-01-28T13:36:25;98223.53;;;0.92;68.96
15674;BME280;7937;48.090;16.212;2023-01-28T13:39:30;98225.84;;;0.87;68.67
15674;BME280;7937;48.090;16.212;2023-01-28T13:42:35;98229.94;;;0.89;68.27
15674;BME280;7937;48.090;16.212;2023-01-28T13:45:37;98231.09;;;0.70;68.48
15674;BME280;7937;48.090;16.212;2023-01-28T13:48:45;98233.06;;;0.68;68.82
15674;BME280;7937;48.090;16.212;2023-01-28T13:55:20;98244.38;;;0.61;69.11
15674;BME280;7937;48.090;16.212;2023-01-28T14:02:14;98253.06;;;0.69;69.16
15674;BME280;7937;48.090;16.212;2023-01-28T14:09:20;98255.69;;;0.77;69.71
15674;BME280;7937;48.090;16.212;2023-01-28T14:19:28;98249.97;;;0.49;70.46
15674;BME280;7937;48.090;16.212;2023-01-28T14:22:32;98261.41;;;0.48;69.87
15674;BME280;7937;48.090;16.212;2023-01-28T14:29:33;98268.47;;;0.56;70.96
15674;BME280;7937;48.090;16.212;2023-01-28T14:32:45;98265.53;;;0.59;70.82
15674;BME280;7937;48.090;16.212;2023-01-28T14:35:49;98262.91;;;0.51;70.50
15674;BME280;7937;48.090;16.212;2023-01-28T14:38:51;98254.22;;;0.42;70.57
15674;BME280;7937;48.090;16.212;2023-01-28T14:42:01;98252.25;;;0.52;70.74
15674;BME280;7937;48.090;16.212;2023-01-28T14:51:58;98261.75;;;0.54;70.71
15674;BME280;7937;48.090;16.212;2023-01-28T14:55:25;98262.88;;;0.67;70.78
15674;BME280;7937;48.090;16.212;2023-01-28T14:58:43;98271.09;;;0.72;70.62
15674;BME280;7937;48.090;16.212;2023-01-28T15:01:48;98283.88;;;0.75;71.18
15674;BME280;7937;48.090;16.212;2023-01-28T15:04:51;98277.66;;;0.76;70.54
15674;BME280;7937;48.090;16.212;2023-01-28T15:07:55;98279.94;;;0.80;70.75
15674;BME280;7937;48.090;16.212;2023-01-28T15:11:01;98278.63;;;0.75;70.91
15674;BME280;7937;48.090;16.212;2023-01-28T15:14:11;98284.19;;;0.72;70.88
15674;BME280;7937;48.090;16.212;2023-01-28T15:17:25;98284.19;;;0.72;71.23
15674;BME280;7937;48.090;16.212;2023-01-28T15:20:28;98251.28;;;0.45;71.08
15674;BME280;7937;48.090;16.212;2023-01-28T15:23:34;98291.38;;;0.54;71.53
15674;BME280;7937;48.090;16.212;2023-01-28T15:26:47;98293.38;;;0.60;71.18
15674;BME280;7937;48.090;16.212;2023-01-28T15:29:55;98300.59;;;0.50;71.28
15674;BME280;7937;48.090;16.212;2023-01-28T15:33:08;98302.41;;;0.49;71.80
15674;BME280;7937;48.090;16.212;2023-01-28T15:36:22;98299.56;;;0.43;71.52
15674;BME280;7937;48.090;16.212;2023-01-28T15:39:32;98315.66;;;0.40;71.76
15674;BME280;7937;48.090;16.212;2023-01-28T15:42:37;98325.97;;;0.41;71.71
15674;BME280;7937;48.090;16.212;2023-01-28T15:45:49;98332.97;;;0.33;72.00
15674;BME280;7937;48.090;16.212;2023-01-28T15:49:00;98325.59;;;0.28;72.37
15674;BME280;7937;48.090;16.212;2023-01-28T15:52:11;98332.59;;;0.11;72.55
15674;BME280;7937;48.090;16.212;2023-01-28T15:55:33;98325.25;;;0.15;72.85
15674;BME280;7937;48.090;16.212;2023-01-28T15:58:36;98284.72;;;-0.15;73.07
15674;BME280;7937;48.090;16.212;2023-01-28T16:01:46;98283.06;;;-0.16;73.39
15674;BME280;7937;48.090;16.212;2023-01-28T16:05:00;98332.91;;;0.08;73.43
15674;BME280;7937;48.090;16.212;2023-01-28T16:08:26;98318.16;;;-0.01;73.45
15674;BME280;7937;48.090;16.212;2023-01-28T16:11:33;98326.56;;;0.11;73.72
15674;BME280;7937;48.090;16.212;2023-01-28T16:14:55;98343.22;;;0.10;73.73
15674;BME280;7937;48.090;16.212;2023-01-28T16:17:58;98340.34;;;0.21;73.53
15674;BME280;7937;48.090;16.212;2023-01-28T16:21:03;98338.00;;;0.18;73.61
15674;BME280;7937;48.090;16.212;2023-01-28T16:24:42;98346.91;;;0.33;73.47
15674;BME280;7937;48.090;16.212;2023-01-28T16:27:49;98353.81;;;0.42;73.51
15674;BME280;7937;48.090;16.212;2023-01-28T16:30:55;98349.72;;;0.40;73.59
15674;BME280;7937;48.090;16.212;2023-01-28T16:34:00;98336.09;;;0.36;73.09
15674;BME280;7937;48.090;16.212;2023-01-28T16:37:08;98358.41;;;0.48;73.16
15674;BME280;7937;48.090;16.212;2023-01-28T16:40:13;98362.69;;;0.58;73.04
15674;BME280;7937;48.090;16.212;2023-01-28T16:43:16;98365.81;;;0.69;73.01
15674;BME280;7937;48.090;16.212;2023-01-28T16:46:19;98362.53;;;0.75;73.03
15674;BME280;7937;48.090;16.212;2023-01-28T16:49:22;98366.16;;;0.74;72.16
15674;BME280;7937;48.090;16.212;2023-01-28T16:52:29;98374.66;;;0.76;72.25
15674;BME280;7937;48.090;16.212;2023-01-28T16:55:31;98379.59;;;0.80;72.28
15674;BME280;7937;48.090;16.212;2023-01-28T16:58:34;98374.03;;;0.74;71.95
15674;BME280;7937;48.090;16.212;2023-01-28T17:01:36;98386.28;;;0.66;72.08
15674;BME280;7937;48.090;16.212;2023-01-28T17:04:40;98393.16;;;0.59;71.78
15674;BME280;7937;48.090;16.212;2023-01-28T17:07:42;98383.66;;;0.58;72.20
15674;BME280;7937;48.090;16.212;2023-01-28T17:10:51;98391.03;;;0.62;72.23
15674;BME280;7937;48.090;16.212;2023-01-28T17:13:54;98396.09;;;0.64;72.19
15674;BME280;7937;48.090;16.212;2023-01-28T17:16:57;98374.16;;;0.57;72.00
15674;BME280;7937;48.090;16.212;2023-01-28T17:20:00;98390.38;;;0.68;71.83
15674;BME280;7937;48.090;16.212;2023-01-28T17:23:03;98387.78;;;0.76;71.99
15674;BME280;7937;48.090;16.212;2023-01-28T17:26:09;98391.53;;;0.66;71.87
15674;BME280;7937;48.090;16.212;2023-01-28T17:29:14;98399.56;;;0.64;72.27
15674;BME280;7937;48.090;16.212;2023-01-28T17:32:19;98404.16;;;0.70;71.99
15674;BME280;7937;48.090;16.212;2023-01-28T17:35:22;98414.31;;;0.73;71.81
15674;BME280;7937;48.090;16.212;2023-01-28T17:38:25;98411.06;;;0.80;72.03
15674;BME280;7937;48.090;16.212;2023-01-28T17:41:27;98416.97;;;0.82;71.96
15674;BME280;7937;48.090;16.212;2023-01-28T17:44:33;98424.00;;;0.81;71.80
15674;BME280;7937;48.090;16.212;2023-01-28T17:47:35;98429.25;;;0.81;71.91
15674;BME280;7937;48.090;16.212;2023-01-28T17:50:43;98423.34;;;0.71;71.56
15674;BME280;7937;48.090;16.212;2023-01-28T17:53:51;98381.97;;;0.48;71.68
15674;BME280;7937;48.090;16.212;2023-01-28T17:56:53;98442.13;;;0.58;71.79
15674;BME280;7937;48.090;16.212;2023-01-28T17:59:57;98440.00;;;0.54;72.04
15674;BME280;7937;48.090;16.212;2023-01-28T18:03:00;98446.38;;;0.51;71.94
15674;BME280;7937;48.090;16.212;2023-01-28T18:06:06;98445.25;;;0.54;72.20
15674;BME280;7937;48.090;16.212;2023-01-28T18:09:08;98452.63;;;0.58;71.92
15674;BME280;7937;48.090;16.212;2023-01-28T18:12:13;98458.50;;;0.52;71.91